createdAt,value
2022-10-14T00:01:42.848Z,101814.09
2022-10-14T00:04:09.405Z,101802.66
2022-10-14T00:06:35.830Z,101798.22
2022-10-14T00:09:06.049Z,101799.88
2022-10-14T00:11:34.386Z,101801.44
2022-10-14T00:14:10.978Z,101795.28
2022-10-14T00:16:39.606Z,101797.06
2022-10-14T00:19:06.456Z,101793.34
2022-10-14T00:21:34.225Z,101797.88
2022-10-14T00:24:00.935Z,101793.63
2022-10-14T00:26:33.323Z,101793.06
2022-10-14T00:29:01.066Z,101804.38
2022-10-14T00:31:28.524Z,101808.88
2022-10-14T00:33:55.136Z,101788.94
2022-10-14T00:36:24.163Z,101787.91
2022-10-14T00:38:51.923Z,101809.59
2022-10-14T00:41:22.459Z,101799.72
2022-10-14T00:43:54.358Z,101793.34
2022-10-14T00:46:21.135Z,101796.78
2022-10-14T00:48:47.782Z,101785.28
2022-10-14T00:51:14.578Z,101777.91
2022-10-14T00:53:42.856Z,101771.19
2022-10-14T00:56:10.699Z,101770.91
2022-10-14T00:58:38.431Z,101767.25
2022-10-14T01:01:04.932Z,101743.59
2022-10-14T01:03:33.675Z,101758.38
2022-10-14T01:06:12.349Z,101741.59
2022-10-14T01:08:55.217Z,101745.66
2022-10-14T01:11:34.596Z,101714.06
2022-10-14T01:14:29.748Z,101755.22
2022-10-14T01:17:14.484Z,101743.84
2022-10-14T01:20:08.151Z,101743.56
2022-10-14T01:23:05.251Z,101739.13
2022-10-14T01:25:36.062Z,101738.13
2022-10-14T01:28:23.071Z,101729.56
2022-10-14T01:31:01.151Z,101736.41
2022-10-14T01:33:35.329Z,101726.75
2022-10-14T01:36:07.186Z,101714.91
2022-10-14T01:38:41.227Z,101728.84
2022-10-14T01:41:14.584Z,101722.84
2022-10-14T01:43:45.607Z,101733.75
2022-10-14T01:46:13.384Z,101738.13
2022-10-14T01:48:46.639Z,101704.69
2022-10-14T01:51:18.707Z,101721.47
2022-10-14T01:53:53.978Z,101725.81
2022-10-14T01:56:21.085Z,101725.59
2022-10-14T01:58:50.576Z,101731.69
2022-10-14T02:01:17.490Z,101731.91
2022-10-14T02:03:46.553Z,101740.78
2022-10-14T02:06:37.158Z,101751.59
2022-10-14T02:09:08.962Z,101739.28
2022-10-14T02:11:45.794Z,101737.28
2022-10-14T02:14:40.341Z,101737.41
2022-10-14T02:17:17.576Z,101741.94
2022-10-14T02:19:52.644Z,101746.28
2022-10-14T02:22:28.064Z,101714.50
2022-10-14T02:25:00.047Z,101747.94
2022-10-14T02:27:29.478Z,101742.78
2022-10-14T02:29:59.297Z,101738.06
2022-10-14T02:32:28.090Z,101739.69
2022-10-14T02:34:58.199Z,101716.09
2022-10-14T02:37:26.331Z,101717.59
2022-10-14T02:40:00.864Z,101694.53
2022-10-14T02:42:27.973Z,101689.25
2022-10-14T02:45:00.248Z,101686.75
2022-10-14T02:47:27.734Z,101692.03
2022-10-14T02:49:54.352Z,101676.41
2022-10-14T02:52:21.108Z,101678.34
2022-10-14T02:54:47.799Z,101683.84
2022-10-14T02:57:14.266Z,101691.00
2022-10-14T02:59:40.747Z,101683.78
2022-10-14T03:02:07.848Z,101695.28
2022-10-14T03:04:35.417Z,101667.00
2022-10-14T03:07:02.330Z,101684.94
2022-10-14T03:09:28.789Z,101685.72
2022-10-14T03:11:55.468Z,101680.13
2022-10-14T03:14:21.913Z,101675.75
2022-10-14T03:16:49.002Z,101643.28
2022-10-14T03:19:15.528Z,101674.91
2022-10-14T03:21:41.921Z,101667.75
2022-10-14T03:24:09.441Z,101677.25
2022-10-14T03:26:35.954Z,101674.59
2022-10-14T03:29:02.430Z,101648.66
2022-10-14T03:31:28.904Z,101667.28
2022-10-14T03:33:55.428Z,101675.06
2022-10-14T03:36:21.952Z,101648.44
2022-10-14T03:38:48.468Z,101662.63
2022-10-14T03:41:15.071Z,101646.03
2022-10-14T03:43:41.499Z,101650.94
2022-10-14T03:46:07.938Z,101644.03
2022-10-14T03:48:34.366Z,101642.81
2022-10-14T03:51:01.177Z,101645.22
2022-10-14T03:53:27.595Z,101629.66
2022-10-14T03:55:53.987Z,101632.84
2022-10-14T03:58:20.538Z,101619.06
2022-10-14T04:00:48.268Z,101634.41
2022-10-14T04:03:14.967Z,101615.09
2022-10-14T04:05:41.395Z,101618.44
2022-10-14T04:08:08.094Z,101626.91
2022-10-14T04:10:35.165Z,101620.69
2022-10-14T04:13:01.715Z,101602.47
2022-10-14T04:15:28.204Z,101608.38
2022-10-14T04:17:55.824Z,101609.06
2022-10-14T04:20:22.547Z,101612.50
2022-10-14T04:22:48.982Z,101604.56
2022-10-14T04:25:15.527Z,101618.50
2022-10-14T04:27:42.008Z,101611.47
2022-10-14T04:30:09.829Z,101608.91
2022-10-14T04:32:36.226Z,101605.31
2022-10-14T04:35:02.761Z,101597.28
2022-10-14T04:37:30.184Z,101601.66
2022-10-14T04:39:56.696Z,101596.28
2022-10-14T04:42:23.503Z,101594.41
2022-10-14T04:44:50.619Z,101583.81
2022-10-14T04:47:17.051Z,101574.84
2022-10-14T04:49:43.432Z,101575.38
2022-10-14T04:52:09.833Z,101574.38
2022-10-14T04:54:36.247Z,101577.09
2022-10-14T04:57:02.825Z,101568.16
2022-10-14T04:59:29.253Z,101566.34
2022-10-14T05:01:55.792Z,101555.91
2022-10-14T05:04:22.479Z,101551.31
2022-10-14T05:06:49.091Z,101562.53
2022-10-14T05:09:15.585Z,101557.06
2022-10-14T05:11:42.124Z,101560.41
2022-10-14T05:14:11.299Z,101546.53
2022-10-14T05:16:37.919Z,101542.88
2022-10-14T05:19:04.364Z,101552.19
2022-10-14T05:21:30.788Z,101536.16
2022-10-14T05:23:57.264Z,101538.91
2022-10-14T05:26:23.716Z,101537.78
2022-10-14T05:28:52.629Z,101532.56
2022-10-14T05:31:19.391Z,101526.50
2022-10-14T05:33:47.223Z,101521.25
2022-10-14T05:36:13.661Z,101520.16
2022-10-14T05:38:40.096Z,101524.19
2022-10-14T05:41:06.586Z,101517.25
2022-10-14T05:43:33.204Z,101512.81
2022-10-14T05:46:00.366Z,101512.91
2022-10-14T05:48:27.425Z,101496.41
2022-10-14T05:50:54.046Z,101508.19
2022-10-14T05:53:20.577Z,101508.81
2022-10-14T05:55:47.095Z,101511.53
2022-10-14T05:58:13.480Z,101508.81
2022-10-14T06:00:39.937Z,101506.16
2022-10-14T06:03:06.509Z,101505.81
2022-10-14T06:05:36.874Z,101506.47
2022-10-14T06:08:06.225Z,101506.75
2022-10-14T06:10:32.818Z,101509.91
2022-10-14T06:12:59.315Z,101503.06
2022-10-14T06:15:25.985Z,101497.41
2022-10-14T06:17:52.619Z,101501.50
2022-10-14T06:20:19.089Z,101495.44
2022-10-14T06:22:45.709Z,101491.16
2022-10-14T06:25:12.210Z,101487.22
2022-10-14T06:27:38.711Z,101446.97
2022-10-14T06:30:05.701Z,101488.00
2022-10-14T06:32:32.207Z,101473.19
2022-10-14T06:34:58.649Z,101477.28
2022-10-14T06:37:25.155Z,101471.13
2022-10-14T06:39:51.602Z,101467.53
2022-10-14T06:42:18.185Z,101469.25
2022-10-14T06:44:45.342Z,101470.97
2022-10-14T06:47:11.827Z,101474.97
2022-10-14T06:49:38.355Z,101473.00
2022-10-14T06:52:04.873Z,101465.78
2022-10-14T06:54:34.461Z,101467.50
2022-10-14T06:57:03.364Z,101464.94
2022-10-14T06:59:29.748Z,101458.78
2022-10-14T07:01:56.260Z,101459.38
2022-10-14T07:04:22.931Z,101454.91
2022-10-14T07:06:49.647Z,101461.94
2022-10-14T07:09:16.041Z,101453.13
2022-10-14T07:11:42.884Z,101451.16
2022-10-14T07:14:10.174Z,101451.75
2022-10-14T07:16:36.629Z,101453.38
2022-10-14T07:19:03.645Z,101449.00
2022-10-14T07:21:30.717Z,101442.94
2022-10-14T07:23:57.244Z,101437.53
2022-10-14T07:26:23.714Z,101443.25
2022-10-14T07:28:50.276Z,101411.38
2022-10-14T07:31:16.942Z,101433.13
2022-10-14T07:33:43.427Z,101428.75
2022-10-14T07:36:18.440Z,101434.72
2022-10-14T07:38:48.405Z,101437.88
2022-10-14T07:41:20.372Z,101438.44
2022-10-14T07:43:49.692Z,101437.50
2022-10-14T07:46:28.210Z,101432.09
2022-10-14T07:48:57.716Z,101423.09
2022-10-14T07:51:25.082Z,101427.53
2022-10-14T07:53:53.000Z,101438.44
2022-10-14T07:56:20.017Z,101436.47
2022-10-14T07:58:46.793Z,101426.41
2022-10-14T08:01:15.819Z,101425.97
2022-10-14T08:03:43.396Z,101421.59
2022-10-14T08:06:09.956Z,101419.84
2022-10-14T08:08:36.437Z,101419.78
2022-10-14T08:11:27.658Z,101429.97
2022-10-14T08:13:54.532Z,101422.84
2022-10-14T08:16:23.443Z,101413.19
2022-10-14T08:18:51.218Z,101417.91
2022-10-14T08:21:19.194Z,101417.53
2022-10-14T08:23:45.731Z,101416.38
2022-10-14T08:26:32.721Z,101416.00
2022-10-14T08:29:01.312Z,101409.72
2022-10-14T08:31:28.532Z,101415.22
2022-10-14T08:33:55.019Z,101411.31
2022-10-14T08:36:23.176Z,101414.50
2022-10-14T08:38:54.220Z,101413.16
2022-10-14T08:41:26.647Z,101413.09
2022-10-14T08:44:20.565Z,101406.53
2022-10-14T08:46:57.320Z,101415.91
2022-10-14T08:49:23.688Z,101418.25
2022-10-14T08:51:58.651Z,101404.97
2022-10-14T08:54:34.839Z,101411.78
2022-10-14T08:57:04.431Z,101406.78
2022-10-14T08:59:41.694Z,101402.31
2022-10-14T09:02:32.674Z,101395.84
2022-10-14T09:05:00.298Z,101398.38
2022-10-14T09:07:27.239Z,101374.00
2022-10-14T09:10:17.001Z,101393.41
2022-10-14T09:12:45.288Z,101371.50
2022-10-14T09:15:34.685Z,101385.47
2022-10-14T09:18:21.676Z,101378.03
2022-10-14T09:20:49.909Z,101374.31
2022-10-14T09:23:22.820Z,101381.56
2022-10-14T09:25:58.076Z,101376.03
2022-10-14T09:28:40.418Z,101372.34
2022-10-14T09:31:11.800Z,101365.84
2022-10-14T09:33:42.270Z,101360.31
2022-10-14T09:36:20.864Z,101346.47
2022-10-14T09:38:52.895Z,101366.84
2022-10-14T09:41:28.059Z,101353.72
2022-10-14T09:44:14.748Z,101371.53
2022-10-14T09:46:41.820Z,101372.38
2022-10-14T09:49:18.710Z,101366.09
2022-10-14T09:51:45.730Z,101363.22
2022-10-14T09:54:38.621Z,101361.19
2022-10-14T09:57:08.146Z,101360.88
2022-10-14T09:59:51.067Z,101358.72
2022-10-14T10:02:36.449Z,101332.44
2022-10-14T10:05:33.197Z,101352.44
2022-10-14T10:08:19.976Z,101353.19
2022-10-14T10:11:08.223Z,101354.56
2022-10-14T10:13:46.329Z,101340.31
2022-10-14T10:16:31.426Z,101352.34
2022-10-14T10:19:07.092Z,101345.94
2022-10-14T10:21:33.666Z,101349.13
2022-10-14T10:24:02.030Z,101345.59
2022-10-14T10:26:34.281Z,101345.59
2022-10-14T10:29:03.887Z,101342.63
2022-10-14T10:31:57.412Z,101341.88
2022-10-14T10:34:35.612Z,101339.94
2022-10-14T10:37:17.525Z,101336.84
2022-10-14T10:40:20.986Z,101338.47
2022-10-14T10:43:26.058Z,101328.78
2022-10-14T10:46:11.264Z,101328.22
2022-10-14T10:48:50.073Z,101332.47
2022-10-14T10:51:49.844Z,101322.13
2022-10-14T10:54:35.749Z,101311.47
2022-10-14T10:57:13.891Z,101314.97
2022-10-14T10:59:52.941Z,101318.16
2022-10-14T11:02:46.029Z,101288.56
2022-10-14T11:05:22.260Z,101305.56
2022-10-14T11:08:18.669Z,101304.28
2022-10-14T11:11:36.458Z,101297.69
2022-10-14T11:14:21.496Z,101296.72
2022-10-14T11:17:09.406Z,101294.91
2022-10-14T11:19:47.131Z,101288.16
2022-10-14T11:22:23.019Z,101261.97
2022-10-14T11:25:19.386Z,101273.91
2022-10-14T11:28:01.567Z,101263.72
2022-10-14T11:30:46.671Z,101274.44
2022-10-14T11:33:40.503Z,101269.59
2022-10-14T11:36:37.926Z,101261.78
2022-10-14T11:39:34.840Z,101262.28
2022-10-14T11:42:24.805Z,101256.34
2022-10-14T11:45:25.741Z,101255.38
2022-10-14T11:48:00.365Z,101242.34
2022-10-14T11:50:36.242Z,101242.34
2022-10-14T11:56:32.320Z,101241.31
2022-10-14T11:59:03.854Z,101222.63
2022-10-14T12:01:35.840Z,101227.22
2022-10-14T12:04:15.923Z,101223.69
2022-10-14T12:07:10.795Z,101224.53
2022-10-14T12:10:00.212Z,101221.16
2022-10-14T12:12:28.855Z,101217.38
2022-10-14T12:15:00.118Z,101217.06
2022-10-14T12:17:52.205Z,101214.53
2022-10-14T12:20:40.595Z,101209.81
2022-10-14T12:23:11.418Z,101199.59
2022-10-14T12:25:47.253Z,101190.41
2022-10-14T12:28:17.430Z,101200.72
2022-10-14T12:30:43.907Z,101200.59
2022-10-14T12:33:12.814Z,101201.25
2022-10-14T12:35:51.810Z,101166.13
2022-10-14T12:38:20.267Z,101153.25
2022-10-14T12:40:50.632Z,101171.84
2022-10-14T12:43:27.286Z,101163.44
2022-10-14T12:46:01.767Z,101179.84
2022-10-14T12:48:34.736Z,101187.19
2022-10-14T12:51:16.467Z,101167.88
2022-10-14T12:54:07.442Z,101158.84
2022-10-14T12:56:38.380Z,101179.06
2022-10-14T12:59:17.557Z,101180.03
2022-10-14T13:01:44.211Z,101177.63
2022-10-14T13:04:20.579Z,101172.41
2022-10-14T13:07:38.918Z,101182.47
2022-10-14T13:10:27.678Z,101188.91
2022-10-14T13:12:54.702Z,101173.75
2022-10-14T13:15:51.859Z,101177.75
2022-10-14T13:18:32.694Z,101174.84
2022-10-14T13:20:59.230Z,101171.31
2022-10-14T13:23:44.809Z,101158.47
2022-10-14T13:26:32.943Z,101167.81
2022-10-14T13:29:14.612Z,101174.00
2022-10-14T13:32:05.806Z,101165.88
2022-10-14T13:35:00.123Z,101164.06
2022-10-14T13:37:34.326Z,101162.13
2022-10-14T13:40:19.746Z,101164.06
2022-10-14T13:42:50.774Z,101167.81
2022-10-14T13:45:18.869Z,101155.53
2022-10-14T13:47:48.606Z,101165.16
2022-10-14T13:50:23.817Z,101166.97
2022-10-14T13:52:57.116Z,101158.97
2022-10-14T13:55:25.251Z,101167.44
2022-10-14T13:58:13.552Z,101142.19
2022-10-14T14:01:09.829Z,101149.47
2022-10-14T14:03:38.811Z,101158.31
2022-10-14T14:06:15.383Z,101149.59
2022-10-14T14:08:49.290Z,101157.47
2022-10-14T14:11:37.286Z,101150.69
2022-10-14T14:14:08.490Z,101144.28
2022-10-14T14:16:50.273Z,101148.50
2022-10-14T14:19:26.029Z,101136.25
2022-10-14T14:22:05.657Z,101137.09
2022-10-14T14:24:34.139Z,101137.59
2022-10-14T14:27:01.096Z,101139.06
2022-10-14T14:29:32.288Z,101138.31
2022-10-14T14:32:08.756Z,101128.03
2022-10-14T14:34:38.179Z,101137.72
2022-10-14T14:37:33.915Z,101134.22
2022-10-14T14:40:04.607Z,101139.78
2022-10-14T14:42:39.610Z,101141.59
2022-10-14T14:45:12.739Z,101136.38
2022-10-14T14:47:40.854Z,101137.84
2022-10-14T14:50:29.455Z,101136.38
2022-10-14T14:53:06.762Z,101145.25
2022-10-14T14:55:40.480Z,101145.25
2022-10-14T14:58:19.156Z,101112.66
2022-10-14T15:00:47.075Z,101138.88
2022-10-14T15:03:13.993Z,101137.19
2022-10-14T15:05:40.526Z,101127.69
2022-10-14T15:08:21.596Z,101123.94
2022-10-14T15:10:50.398Z,101135.69
2022-10-14T15:13:39.671Z,101140.06
2022-10-14T15:16:06.821Z,101145.06
2022-10-14T15:18:33.481Z,101134.00
2022-10-14T15:21:12.135Z,101138.47
2022-10-14T15:23:39.922Z,101130.84
2022-10-14T15:26:35.664Z,101124.78
2022-10-14T15:29:03.975Z,101116.91
2022-10-14T15:31:30.488Z,101114.34
2022-10-14T15:33:57.036Z,101106.34
2022-10-14T15:36:23.559Z,101113.97
2022-10-14T15:38:56.213Z,101111.31
2022-10-14T15:41:22.630Z,101108.50
2022-10-14T15:43:49.152Z,101112.88
2022-10-14T15:46:34.692Z,101099.91
2022-10-14T15:49:04.597Z,101099.91
2022-10-14T15:51:31.722Z,101082.53
2022-10-14T15:53:58.169Z,101096.75
2022-10-14T15:56:24.721Z,101095.78
2022-10-14T15:58:51.133Z,101094.81
2022-10-14T16:01:22.682Z,101084.38
2022-10-14T16:03:52.298Z,101093.94
2022-10-14T16:06:19.537Z,101088.59
2022-10-14T16:08:50.921Z,101092.34
2022-10-14T16:11:23.037Z,101087.25
2022-10-14T16:13:52.993Z,101086.66
2022-10-14T16:16:29.305Z,101085.63
2022-10-14T16:18:55.937Z,101076.75
2022-10-14T16:21:22.450Z,101089.47
2022-10-14T16:23:49.879Z,101088.84
2022-10-14T16:26:16.270Z,101078.16
2022-10-14T16:28:42.721Z,101073.81
2022-10-14T16:31:14.139Z,101065.09
2022-10-14T16:33:43.298Z,101065.31
2022-10-14T16:36:14.714Z,101064.31
2022-10-14T16:38:41.252Z,101076.53
2022-10-14T16:41:09.900Z,101079.53
2022-10-14T16:43:37.066Z,101080.38
2022-10-14T16:46:04.373Z,101075.41
2022-10-14T16:48:32.107Z,101083.28
2022-10-14T16:50:59.192Z,101090.53
2022-10-14T16:53:45.028Z,101091.59
2022-10-14T16:56:39.625Z,101085.22
2022-10-14T16:59:09.762Z,101098.00
2022-10-14T17:01:36.291Z,101111.94
2022-10-14T17:04:02.788Z,101101.94
2022-10-14T17:06:29.223Z,101109.28
2022-10-14T17:08:55.649Z,101106.75
2022-10-14T17:11:22.547Z,101105.28
2022-10-14T17:13:54.302Z,101098.56
2022-10-14T17:16:21.054Z,101102.78
2022-10-14T17:21:15.910Z,101095.66
2022-10-14T17:23:44.042Z,101087.69
2022-10-14T17:26:18.972Z,101092.50
2022-10-14T17:28:46.924Z,101086.78
2022-10-14T17:31:18.923Z,101093.91
2022-10-14T17:33:45.694Z,101086.25
2022-10-14T17:36:30.692Z,101085.28
2022-10-14T17:38:58.197Z,101067.88
2022-10-14T17:41:27.150Z,101075.75
2022-10-14T17:43:55.421Z,101093.59
2022-10-14T17:46:24.683Z,101098.69
2022-10-14T17:48:53.521Z,101106.34
2022-10-14T17:51:24.312Z,101110.19
2022-10-14T17:53:59.664Z,101123.38
2022-10-14T17:56:27.748Z,101119.97
2022-10-14T17:58:58.173Z,101118.38
2022-10-14T18:01:37.214Z,101103.41
2022-10-14T18:04:10.612Z,101100.97
2022-10-14T18:06:37.419Z,101103.72
2022-10-14T18:09:06.652Z,101098.00
2022-10-14T18:11:56.241Z,101102.75
2022-10-14T18:14:21.503Z,101096.06
2022-10-14T18:16:48.729Z,101101.16
2022-10-14T18:19:16.598Z,101087.47
2022-10-14T18:21:44.350Z,101077.56
2022-10-14T18:24:11.841Z,101083.22
2022-10-14T18:26:40.489Z,101078.84
2022-10-14T18:29:08.509Z,101085.78
2022-10-14T18:31:35.402Z,101085.03
2022-10-14T18:34:02.253Z,101061.97
2022-10-14T18:36:31.007Z,101080.66
2022-10-14T18:39:00.110Z,101075.69
2022-10-14T18:41:27.579Z,101078.78
2022-10-14T18:43:54.679Z,101072.38
2022-10-14T18:46:23.340Z,101071.31
2022-10-14T18:48:52.569Z,101080.88
2022-10-14T18:51:25.619Z,101080.66
2022-10-14T18:53:55.790Z,101069.91
2022-10-14T18:56:25.024Z,101068.78
2022-10-14T18:58:57.919Z,101065.47
2022-10-14T19:01:26.211Z,101077.19
2022-10-14T19:03:53.535Z,101075.69
2022-10-14T19:06:21.216Z,101082.50
2022-10-14T19:08:50.920Z,101077.09
2022-10-14T19:11:21.559Z,101045.28
2022-10-14T19:13:50.260Z,101072.63
2022-10-14T19:16:26.018Z,101057.50
2022-10-14T19:18:58.414Z,101064.88
2022-10-14T19:21:30.249Z,101076.25
2022-10-14T19:23:58.518Z,101067.53
2022-10-14T19:26:27.563Z,101070.81
2022-10-14T19:28:54.441Z,101068.88
2022-10-14T19:31:24.971Z,101054.97
2022-10-14T19:33:53.237Z,101070.47
2022-10-14T19:36:21.672Z,101061.88
2022-10-14T19:38:54.781Z,101080.72
2022-10-14T19:41:21.371Z,101083.66
2022-10-14T19:43:48.263Z,101079.41
2022-10-14T19:46:15.062Z,101073.47
2022-10-14T19:48:42.122Z,101061.25
2022-10-14T19:51:10.056Z,101060.81
2022-10-14T19:53:40.364Z,101081.88
2022-10-14T19:56:09.521Z,101068.25
2022-10-14T19:58:39.636Z,101064.53
2022-10-14T20:01:10.783Z,101077.94
2022-10-14T20:03:37.802Z,101062.41
2022-10-14T20:06:05.646Z,101061.69
2022-10-14T20:08:32.620Z,101045.22
2022-10-14T20:11:24.757Z,101057.31
2022-10-14T20:13:51.326Z,101064.34
2022-10-14T20:16:17.820Z,101062.09
2022-10-14T20:18:44.409Z,101062.31
2022-10-14T20:21:13.656Z,101063.06
2022-10-14T20:23:40.316Z,101056.25
2022-10-14T20:26:12.383Z,101050.84
2022-10-14T20:28:39.593Z,101047.66
2022-10-14T20:31:11.478Z,101049.13
2022-10-14T20:33:38.154Z,101046.16
2022-10-14T20:36:10.378Z,101051.25
2022-10-14T20:38:41.001Z,101051.78
2022-10-14T20:41:16.071Z,101042.13
2022-10-14T20:43:43.647Z,101038.31
2022-10-14T20:46:10.528Z,101048.38
2022-10-14T20:48:40.299Z,101041.38
2022-10-14T20:51:09.249Z,101045.41
2022-10-14T20:53:35.787Z,101035.09
2022-10-14T20:56:04.173Z,101047.97
2022-10-14T20:58:30.689Z,101040.22
2022-10-14T21:01:24.596Z,101029.69
2022-10-14T21:03:51.554Z,101041.81
2022-10-14T21:06:21.527Z,101039.34
2022-10-14T21:08:51.806Z,101027.34
2022-10-14T21:11:21.460Z,101032.66
2022-10-14T21:13:50.477Z,101037.97
2022-10-14T21:16:21.806Z,101039.16
2022-10-14T21:18:53.715Z,101033.84
2022-10-14T21:21:27.143Z,101033.94
2022-10-14T21:23:54.527Z,101044.56
2022-10-14T21:26:21.040Z,101046.78
2022-10-14T21:28:47.651Z,101037.44
2022-10-14T21:31:18.692Z,101051.03
2022-10-14T21:33:47.123Z,101030.97
2022-10-14T21:36:16.093Z,101046.69
2022-10-14T21:38:42.714Z,101037.97
2022-10-14T21:41:09.363Z,101045.72
2022-10-14T21:43:37.119Z,101034.13
2022-10-14T21:46:09.047Z,101037.66
2022-10-14T21:48:35.524Z,101037.13
2022-10-14T21:51:07.595Z,101031.81
2022-10-14T21:53:34.957Z,101031.91
2022-10-14T21:56:01.692Z,101033.28
2022-10-14T21:58:28.207Z,101030.00
2022-10-14T22:01:27.079Z,101028.41
2022-10-14T22:03:55.652Z,101015.44
2022-10-14T22:06:22.203Z,101021.59
2022-10-14T22:08:52.246Z,101027.78
2022-10-14T22:11:25.820Z,101019.69
2022-10-14T22:13:53.585Z,100996.13
2022-10-14T22:16:20.539Z,101025.22
2022-10-14T22:18:50.347Z,101017.56
2022-10-14T22:21:19.158Z,101010.78
2022-10-14T22:23:46.910Z,101015.78
2022-10-14T22:26:15.698Z,101009.41
2022-10-14T22:28:42.752Z,101018.00
2022-10-14T22:31:16.513Z,100999.94
2022-10-14T22:33:43.849Z,101001.00
2022-10-14T22:36:19.462Z,101006.53
2022-10-14T22:38:50.482Z,101004.84
2022-10-14T22:41:17.980Z,101000.47
2022-10-14T22:43:53.918Z,100997.59
2022-10-14T22:46:23.552Z,101000.03
2022-10-14T22:48:56.002Z,100965.84
2022-10-14T22:51:28.199Z,100986.13
2022-10-14T22:53:55.285Z,100971.47
2022-10-14T22:56:23.968Z,100986.53
2022-10-14T22:58:54.497Z,100997.16
2022-10-14T23:01:22.208Z,100980.38
2022-10-14T23:03:48.920Z,100991.31
2022-10-14T23:06:18.676Z,100980.69
2022-10-14T23:08:45.250Z,100968.47
2022-10-14T23:11:17.212Z,100968.47
2022-10-14T23:13:44.436Z,100983.97
2022-10-14T23:16:14.210Z,100976.00
2022-10-14T23:21:15.797Z,100967.59
2022-10-14T23:23:43.443Z,100971.72
2022-10-14T23:26:14.390Z,100960.81
2022-10-14T23:28:41.301Z,100969.06
2022-10-14T23:31:16.912Z,100972.38
2022-10-14T23:33:43.965Z,100970.56
2022-10-14T23:36:12.762Z,100967.78
2022-10-14T23:38:40.688Z,100971.72
2022-10-14T23:41:08.517Z,100963.66
2022-10-14T23:43:34.973Z,100937.88
2022-10-14T23:46:01.800Z,100969.50
2022-10-14T23:48:28.646Z,100968.66
2022-10-14T23:50:55.269Z,100971.44
2022-10-14T23:53:22.451Z,100974.81
2022-10-14T23:55:49.299Z,100964.19
2022-10-14T23:58:15.763Z,100966.22
